Madray Springs, Georgia
Current Conditions -  °F | °C
As of 5:15 PM on Wednesday 28 Jan 2015 (Local Time) from KJES Reporting Station
Clear Clear  
Wind Chill: 55°   Ceiling: Unl
Heat Index: 55°   Visibility: 10mi
Dew Point: 30°   Wind: 0mph
Humidity: 38%   Direction: NA
Pressure: 30.26"   Gusts: NA
Location:  31.5041°N, 81.8277°W
Report Text: KJES 282215Z AUTO 00000KT 10SM CLR 13/M01 A3026 RMK AO2
Loading
Personal Weather Stations






























Interactive Weather Map New forecast layout! Learn more

10-Day Weather Forecast

Advertisements
Track Severe Weather on mobile